Time;durP1;ratioP1;P1;durP2;ratioP2;P2;SDS_P1;SDS_P2;PMS_P1;PMS_P2;Temp;Humidity;BMP_temperature;BMP_pressure;BME280_temperature;BME280_humidity;BME280_pressure;Samples;Min_cycle;Max_cycle;Signal;HPM_P1;HPM_P2
2021/01/21 00:02:10;;;;;;;3.43;1.70;;;;;;;10.82;91.83;98003.59;5001106;28;20394;-37
2021/01/21 00:04:57;;;;;;;4.53;2.20;;;;;;;10.75;91.35;98003.06;5001479;28;20207;-32
2021/01/21 00:07:45;;;;;;;2.53;1.47;;;;;;;10.78;91.65;98000.31;5000986;28;20203;-34
2021/01/21 00:10:32;;;;;;;4.77;1.50;;;;;;;10.83;90.65;97994.91;5001273;28;20226;-34
2021/01/21 00:13:19;;;;;;;3.37;1.50;;;;;;;10.91;90.02;97990.25;5001313;28;20188;-35
2021/01/21 00:16:09;;;;;;;4.23;1.60;;;;;;;10.87;90.32;97980.94;5001212;28;20198;-33
2021/01/21 00:18:56;;;;;;;5.53;1.67;;;;;;;10.89;90.45;97981.72;5001372;28;20309;-37
2021/01/21 00:21:43;;;;;;;2.60;1.53;;;;;;;10.82;90.71;97969.97;5000979;28;20215;-35
2021/01/21 00:24:29;;;;;;;2.60;1.30;;;;;;;10.89;91.16;97969.63;5000853;28;20197;-33
2021/01/21 00:27:16;;;;;;;2.70;2.00;;;;;;;10.81;90.01;97953.59;5000543;28;20265;-34
2021/01/21 00:30:06;;;;;;;5.17;1.80;;;;;;;10.92;89.65;97955.69;5000871;28;20293;-35
2021/01/21 00:32:53;;;;;;;4.47;1.60;;;;;;;10.85;90.24;97952.56;5000311;28;20223;-36
2021/01/21 00:35:40;;;;;;;3.10;1.83;;;;;;;10.95;89.72;97958.16;5000531;28;20206;-38
2021/01/21 00:38:27;;;;;;;2.60;1.50;;;;;;;10.86;89.77;97940.47;5000545;28;20265;-34
2021/01/21 00:41:14;;;;;;;2.57;1.67;;;;;;;10.84;89.40;97929.34;5000164;28;20310;-33
2021/01/21 00:44:06;;;;;;;3.27;1.67;;;;;;;10.84;89.31;97930.19;5000234;28;20226;-35
2021/01/21 00:46:53;;;;;;;3.63;1.67;;;;;;;10.92;89.34;97922.06;5000317;28;20227;-33
2021/01/21 00:49:41;;;;;;;4.73;2.30;;;;;;;10.83;89.02;97912.16;4999826;28;20206;-35
2021/01/21 00:52:27;;;;;;;2.63;1.50;;;;;;;10.89;89.09;97912.72;4999781;28;20226;-33
2021/01/21 00:55:17;;;;;;;3.53;2.17;;;;;;;10.83;89.15;97912.16;5000159;28;20206;-33
2021/01/21 00:58:04;;;;;;;4.37;2.10;;;;;;;10.87;88.90;97909.34;5000151;28;20230;-36
2021/01/21 01:00:50;;;;;;;3.30;1.90;;;;;;;10.92;87.91;97902.22;4999608;28;20362;-32
2021/01/21 01:03:37;;;;;;;2.93;1.80;;;;;;;10.86;88.50;97896.50;4999919;28;20194;-33
2021/01/21 01:06:24;;;;;;;2.17;1.60;;;;;;;10.83;89.06;97883.72;4999424;28;20202;-33
2021/01/21 01:09:11;;;;;;;1.53;1.43;;;;;;;10.85;88.85;97867.22;4999648;28;20197;-34
2021/01/21 01:11:58;;;;;;;3.83;1.87;;;;;;;10.71;89.01;97859.28;4999039;28;20443;-37
2021/01/21 01:14:45;;;;;;;3.30;1.50;;;;;;;10.86;88.21;97861.13;4999421;28;20210;-33
2021/01/21 01:17:31;;;;;;;1.57;1.47;;;;;;;10.78;89.55;97857.25;5000033;28;20210;-37
2021/01/21 01:20:20;;;;;;;1.80;1.60;;;;;;;10.61;89.93;97847.69;4999543;28;20674;-36
2021/01/21 01:23:10;;;;;;;3.47;1.60;;;;;;;10.75;88.95;97845.31;4999121;28;20465;-34
2021/01/21 01:25:57;;;;;;;2.37;1.53;;;;;;;10.74;88.45;97837.63;4999368;28;20194;-35
2021/01/21 01:28:43;;;;;;;2.27;1.50;;;;;;;10.77;89.20;97829.72;4999331;28;20550;-34
2021/01/21 01:31:30;;;;;;;4.30;1.83;;;;;;;10.74;88.03;97835.88;4999047;28;20234;-34
2021/01/21 01:34:17;;;;;;;6.73;1.77;;;;;;;10.76;90.31;97828.88;4999058;28;20353;-33
2021/01/21 01:37:04;;;;;;;2.90;1.40;;;;;;;10.67;89.02;97837.91;4999018;28;20593;-33
2021/01/21 01:39:53;;;;;;;2.90;1.53;;;;;;;10.72;89.07;97817.00;4999448;28;20262;-35
2021/01/21 01:42:41;;;;;;;7.00;1.73;;;;;;;10.76;88.40;97808.19;4999099;28;20195;-35
2021/01/21 01:45:28;;;;;;;3.00;1.30;;;;;;;10.72;89.25;97788.56;4998818;28;20198;-32
2021/01/21 01:48:18;;;;;;;3.93;1.60;;;;;;;10.67;89.82;97788.78;4999202;28;20199;-35
2021/01/21 01:51:05;;;;;;;4.90;1.63;;;;;;;10.65;89.21;97795.78;4999291;28;20203;-34
2021/01/21 01:53:52;;;;;;;2.07;1.83;;;;;;;10.64;89.63;97788.09;4998793;28;20206;-35
2021/01/21 01:56:40;;;;;;;3.23;1.70;;;;;;;10.56;89.11;97785.06;4998766;28;20202;-37
2021/01/21 01:59:28;;;;;;;4.63;2.10;;;;;;;10.52;89.25;97771.44;4999160;28;20517;-36
2021/01/21 02:02:15;;;;;;;3.07;2.00;;;;;;;10.55;88.36;97767.88;4998636;28;20202;-35
2021/01/21 02:05:03;;;;;;;4.13;1.50;;;;;;;10.58;89.99;97750.47;4999285;28;20249;-37
2021/01/21 02:07:49;;;;;;;1.93;1.20;;;;;;;10.58;88.25;97742.72;4999136;28;20209;-36
2021/01/21 02:10:37;;;;;;;3.50;1.67;;;;;;;10.54;89.26;97740.34;4999202;28;20725;-38
2021/01/21 02:13:44;;;;;;;3.37;1.53;;;;;;;10.65;87.77;97725.97;4998429;28;20238;-38
2021/01/21 02:16:43;;;;;;;2.07;1.57;;;;;;;10.68;87.79;97714.63;4999430;28;20205;-37
2021/01/21 02:20:11;;;;;;;3.17;1.53;;;;;;;10.79;86.78;97716.69;4999064;28;20262;-34
2021/01/21 02:23:42;;;;;;;2.63;1.53;;;;;;;10.66;87.11;97704.38;4999017;28;20337;-32
2021/01/21 02:26:33;;;;;;;4.33;1.20;;;;;;;10.74;85.70;97708.34;4998277;28;20484;-36
2021/01/21 02:29:25;;;;;;;5.63;1.73;;;;;;;10.71;85.66;97704.16;4998305;28;20325;-35
2021/01/21 02:32:33;;;;;;;3.53;1.20;;;;;;;10.78;85.21;97710.69;4997888;28;20514;-32
2021/01/21 02:35:24;;;;;;;4.93;1.90;;;;;;;10.76;85.32;97699.59;4998066;28;20207;-36
2021/01/21 02:38:13;;;;;;;4.73;1.40;;;;;;;10.84;85.83;97681.91;4998113;28;20337;-33
2021/01/21 02:41:00;;;;;;;4.90;1.50;;;;;;;10.60;86.92;97665.06;4998049;28;20303;-34
2021/01/21 02:43:51;;;;;;;2.37;1.40;;;;;;;10.80;85.88;97658.84;4997912;28;20269;-33
2021/01/21 02:46:40;;;;;;;1.40;1.30;;;;;;;10.80;84.88;97656.28;4997734;28;20218;-37
2021/01/21 02:49:27;;;;;;;2.00;0.90;;;;;;;10.72;84.87;97646.34;4998034;28;20349;-36
2021/01/21 02:52:21;;;;;;;1.73;1.30;;;;;;;10.87;85.53;97647.28;4997770;28;20410;-33
2021/01/21 02:55:19;;;;;;;3.27;1.40;;;;;;;10.80;85.00;97638.16;4997336;28;20214;-34
2021/01/21 02:58:12;;;;;;;4.60;1.40;;;;;;;10.83;84.61;97619.91;4997742;28;20290;-32
2021/01/21 03:01:01;;;;;;;3.13;1.70;;;;;;;10.87;84.28;97626.59;4997560;28;20203;-33
2021/01/21 03:03:50;;;;;;;2.10;1.07;;;;;;;10.77;85.38;97641.78;4998235;28;20469;-33
2021/01/21 03:06:39;;;;;;;1.50;1.40;;;;;;;10.83;84.18;97638.00;4998067;28;20207;-32
2021/01/21 03:09:27;;;;;;;2.40;1.37;;;;;;;10.97;84.25;97643.31;4997800;28;20497;-34
2021/01/21 03:12:31;;;;;;;5.37;1.67;;;;;;;10.82;83.84;97636.34;4997532;28;20226;-34
2021/01/21 03:15:20;;;;;;;1.33;1.23;;;;;;;10.79;84.32;97628.78;4997592;28;20301;-33
2021/01/21 03:18:07;;;;;;;1.80;1.47;;;;;;;10.73;85.10;97610.97;4997192;28;20214;-33
2021/01/21 03:20:54;;;;;;;3.70;1.50;;;;;;;10.81;84.83;97616.56;4997547;28;20195;-36
2021/01/21 03:23:42;;;;;;;1.73;1.27;;;;;;;10.81;84.80;97619.16;4997436;28;20214;-33
2021/01/21 03:26:30;;;;;;;4.07;1.50;;;;;;;10.91;84.27;97620.34;5001262;28;20349;-33
2021/01/21 03:29:16;;;;;;;3.17;1.27;;;;;;;10.88;83.89;97628.28;5001654;28;20358;-35
2021/01/21 03:32:03;;;;;;;4.63;1.60;;;;;;;10.98;82.87;97617.38;5001409;28;20234;-34
2021/01/21 03:34:50;;;;;;;3.33;1.30;;;;;;;11.08;82.29;97622.88;5001874;28;20207;-35
2021/01/21 03:37:37;;;;;;;3.10;1.53;;;;;;;11.26;81.18;97603.78;5001149;28;20207;-32
2021/01/21 03:40:24;;;;;;;3.17;1.30;;;;;;;10.96;82.80;97590.75;5001723;28;20202;-35
2021/01/21 03:43:12;;;;;;;2.77;1.20;;;;;;;11.10;81.47;97582.25;5001299;28;20228;-31
2021/01/21 03:45:59;;;;;;;2.63;1.10;;;;;;;11.12;81.34;97572.66;5001980;28;20199;-33
2021/01/21 03:48:46;;;;;;;2.67;1.40;;;;;;;11.07;82.11;97563.44;5001331;28;20354;-32
2021/01/21 03:51:33;;;;;;;3.60;1.60;;;;;;;11.05;81.60;97566.13;5001632;28;20258;-35
2021/01/21 03:54:19;;;;;;;4.03;1.40;;;;;;;11.14;81.38;97563.03;5001152;28;20203;-34
2021/01/21 03:57:05;;;;;;;2.00;1.13;;;;;;;11.13;82.77;97553.63;5000897;28;20294;-34
2021/01/21 03:59:53;;;;;;;3.30;1.40;;;;;;;11.16;80.56;97561.22;5000763;28;20727;-36
2021/01/21 04:02:39;;;;;;;1.47;1.30;;;;;;;11.09;81.62;97544.34;5001069;28;20285;-35
2021/01/21 04:05:26;;;;;;;1.77;1.37;;;;;;;11.12;81.71;97551.94;5000992;28;20514;-33
2021/01/21 04:08:13;;;;;;;1.90;1.17;;;;;;;11.15;80.90;97541.44;5000929;28;20318;-33
2021/01/21 04:11:00;;;;;;;3.13;1.37;;;;;;;11.34;80.23;97543.84;5001766;28;20203;-33
2021/01/21 04:13:46;;;;;;;1.80;1.70;;;;;;;11.42;80.23;97548.56;5001077;28;20234;-34
2021/01/21 04:16:34;;;;;;;3.67;1.53;;;;;;;11.44;79.64;97547.56;5000720;28;20218;-34
2021/01/21 04:19:21;;;;;;;1.37;1.23;;;;;;;11.51;80.52;97543.72;5000890;28;20222;-37
2021/01/21 04:22:07;;;;;;;1.80;1.30;;;;;;;11.65;78.97;97548.94;5000333;28;20533;-33
2021/01/21 04:24:54;;;;;;;3.10;1.20;;;;;;;11.73;79.00;97543.31;5000911;28;20202;-31
2021/01/21 04:27:41;;;;;;;4.00;1.43;;;;;;;11.66;78.82;97522.13;5000735;28;20473;-35
2021/01/21 04:30:32;;;;;;;1.23;1.10;;;;;;;11.68;79.89;97509.91;5000810;28;20202;-34
2021/01/21 04:33:20;;;;;;;1.70;1.20;;;;;;;11.67;81.39;97512.59;5000227;28;20341;-32
2021/01/21 04:36:07;;;;;;;4.93;1.10;;;;;;;11.71;80.77;97519.28;4999797;28;20349;-35
2021/01/21 04:38:54;;;;;;;1.27;1.10;;;;;;;11.85;82.99;97516.72;5000347;28;20226;-36
2021/01/21 04:41:40;;;;;;;1.20;1.07;;;;;;;11.69;84.20;97521.09;5000671;28;20226;-38
2021/01/21 04:44:26;;;;;;;1.30;1.20;;;;;;;11.67;84.22;97508.25;5000263;28;20209;-31
2021/01/21 04:47:16;;;;;;;2.70;1.30;;;;;;;11.66;82.91;97523.88;4999630;28;20218;-37
2021/01/21 04:50:06;;;;;;;0.80;0.80;;;;;;;11.66;83.94;97513.50;4999801;28;20211;-32
2021/01/21 04:52:54;;;;;;;2.00;1.00;;;;;;;11.64;84.12;97507.59;5000141;28;20648;-36
2021/01/21 04:55:44;;;;;;;1.33;1.10;;;;;;;11.66;85.45;97508.34;4999988;28;20198;-34
2021/01/21 04:58:32;;;;;;;1.43;1.20;;;;;;;11.58;84.04;97511.38;4999714;28;20249;-32
2021/01/21 05:01:19;;;;;;;2.80;1.30;;;;;;;11.59;84.97;97499.28;5000063;28;20207;-36
2021/01/21 05:04:07;;;;;;;2.10;1.20;;;;;;;11.55;86.06;97503.78;4999103;28;20202;-33
2021/01/21 05:06:55;;;;;;;2.40;0.87;;;;;;;11.56;86.42;97504.63;5000092;28;20218;-33
2021/01/21 05:09:44;;;;;;;1.70;1.20;;;;;;;11.71;85.49;97499.38;5000279;28;20203;-33
2021/01/21 05:12:31;;;;;;;2.23;1.17;;;;;;;11.61;85.66;97495.66;4999947;28;20234;-37
2021/01/21 05:15:18;;;;;;;2.13;1.23;;;;;;;11.74;84.23;97503.56;4999488;28;20350;-32
2021/01/21 05:18:05;;;;;;;3.03;1.37;;;;;;;11.88;82.58;97502.78;4999728;28;20597;-36
2021/01/21 05:20:53;;;;;;;2.33;1.40;;;;;;;11.86;83.24;97494.25;4999262;28;20217;-32
2021/01/21 05:23:41;;;;;;;2.93;1.17;;;;;;;11.90;82.40;97486.22;4999618;28;20203;-33
2021/01/21 05:26:28;;;;;;;3.33;1.20;;;;;;;11.99;82.12;97487.44;4999485;28;20223;-33
2021/01/21 05:29:17;;;;;;;1.60;1.00;;;;;;;11.85;82.13;97479.63;4999242;28;20206;-32
2021/01/21 05:32:06;;;;;;;2.23;1.30;;;;;;;11.96;82.45;97465.16;4999280;28;20234;-34
2021/01/21 05:34:53;;;;;;;3.60;2.77;;;;;;;11.97;82.71;97484.94;4999600;28;20203;-35
2021/01/21 05:37:41;;;;;;;3.63;2.50;;;;;;;11.98;82.89;97473.66;4999086;28;20190;-34
2021/01/21 05:40:30;;;;;;;2.87;1.43;;;;;;;12.02;85.11;97471.69;4999134;28;20293;-33
2021/01/21 05:43:16;;;;;;;1.27;1.27;;;;;;;11.94;85.42;97463.56;4998601;28;20202;-32
2021/01/21 05:46:06;;;;;;;1.30;1.20;;;;;;;12.00;88.52;97473.53;4999364;28;20199;-34
2021/01/21 05:48:52;;;;;;;1.77;1.20;;;;;;;11.85;91.88;97471.88;4998607;28;20202;-35
2021/01/21 05:51:40;;;;;;;4.73;1.40;;;;;;;11.79;92.87;97456.72;4999205;28;20210;-35
2021/01/21 05:54:28;;;;;;;1.10;1.00;;;;;;;11.85;91.68;97457.16;4998531;28;20194;-36
2021/01/21 05:57:17;;;;;;;3.60;1.07;;;;;;;12.03;89.78;97458.66;4998889;28;20540;-34
2021/01/21 06:00:04;;;;;;;1.07;0.83;;;;;;;12.11;87.27;97465.97;4998679;28;20195;-37
2021/01/21 06:02:52;;;;;;;2.23;1.37;;;;;;;12.13;87.16;97468.47;4998534;28;20198;-34
2021/01/21 06:05:39;;;;;;;1.17;1.00;;;;;;;12.19;87.16;97475.88;4998455;28;20490;-36
2021/01/21 06:08:29;;;;;;;2.37;0.97;;;;;;;12.36;86.18;97491.25;4999344;28;20470;-32
2021/01/21 06:11:31;;;;;;;0.80;0.80;;;;;;;12.29;85.70;97495.97;4998535;28;20202;-33
2021/01/21 06:14:23;;;;;;;1.33;1.00;;;;;;;12.23;86.84;97487.72;4997875;28;20489;-34
2021/01/21 06:17:10;;;;;;;1.60;0.90;;;;;;;12.23;88.97;97505.84;4998106;28;20217;-33
2021/01/21 06:19:57;;;;;;;4.00;1.00;;;;;;;11.93;95.60;97530.09;4998422;28;20197;-35
2021/01/21 06:22:45;;;;;;;5.60;2.00;;;;;;;11.82;100.00;97547.16;4998984;28;20190;-38
2021/01/21 06:25:34;;;;;;;0.87;0.80;;;;;;;11.77;100.00;97722.75;4998962;28;20542;-34
2021/01/21 06:28:21;;;;;;;3.10;1.27;;;;;;;7.34;100.00;97754.13;4998307;28;20198;-34
2021/01/21 06:31:11;;;;;;;2.23;1.10;;;;;;;6.89;100.00;97780.56;4997936;28;20207;-32
2021/01/21 06:33:59;;;;;;;2.93;0.67;;;;;;;6.83;100.00;97774.78;4998125;28;20224;-34
2021/01/21 06:36:52;;;;;;;0.70;0.53;;;;;;;6.76;100.00;97769.03;4997987;28;20605;-32
2021/01/21 06:39:47;;;;;;;2.47;0.77;;;;;;;6.86;100.00;97798.63;4997756;28;20309;-37
2021/01/21 06:42:56;;;;;;;0.77;0.70;;;;;;;6.79;100.00;97817.75;4997802;28;20203;-38
2021/01/21 06:45:44;;;;;;;0.80;0.60;;;;;;;6.79;100.00;97828.00;4997595;28;20313;-35
2021/01/21 06:48:33;;;;;;;0.50;0.50;;;;;;;6.87;100.00;97820.88;4997414;28;20234;-40
2021/01/21 06:51:21;;;;;;;3.07;0.97;;;;;;;6.87;100.00;97838.03;4997762;28;20197;-36
2021/01/21 06:54:10;;;;;;;1.13;0.50;;;;;;;6.91;100.00;97855.84;4997525;28;20222;-34
2021/01/21 06:56:57;;;;;;;0.93;0.57;;;;;;;6.80;100.00;97827.09;4997547;28;20608;-34
2021/01/21 06:59:54;;;;;;;1.83;0.50;;;;;;;6.95;100.00;97854.03;4996666;28;20211;-36
2021/01/21 07:02:45;;;;;;;4.33;0.70;;;;;;;6.81;100.00;97857.03;4997313;28;20206;-38
2021/01/21 07:05:33;;;;;;;1.23;0.50;;;;;;;6.83;100.00;97864.69;4997232;28;20214;-36
2021/01/21 07:08:20;;;;;;;0.50;0.50;;;;;;;6.70;100.00;97868.56;4997066;28;20210;-32
2021/01/21 07:11:08;;;;;;;1.10;0.40;;;;;;;6.80;100.00;97881.06;4997152;28;20198;-37
2021/01/21 07:13:55;;;;;;;0.53;0.53;;;;;;;6.74;100.00;97888.13;4997011;28;20293;-35
2021/01/21 07:17:04;;;;;;;2.37;0.60;;;;;;;6.79;100.00;97883.69;4996975;28;20488;-37
2021/01/21 07:19:50;;;;;;;0.50;0.50;;;;;;;6.73;100.00;97877.03;4996609;28;20207;-37
2021/01/21 07:22:47;;;;;;;1.73;0.60;;;;;;;6.77;100.00;97859.78;4996554;28;20668;-32
2021/01/21 07:25:36;;;;;;;1.17;0.50;;;;;;;6.69;100.00;97859.19;4996649;28;20198;-33
2021/01/21 07:28:23;;;;;;;1.70;0.70;;;;;;;6.88;100.00;97873.09;4996952;28;20333;-36
2021/01/21 07:31:15;;;;;;;0.40;0.40;;;;;;;6.75;100.00;97894.97;4996626;28;20206;-35
2021/01/21 07:34:24;;;;;;;1.07;0.50;;;;;;;6.96;100.00;97896.84;4996734;28;20648;-33
2021/01/21 07:37:30;;;;;;;3.43;0.80;;;;;;;6.98;100.00;97900.19;4997245;28;20206;-34
2021/01/21 07:40:18;;;;;;;0.80;0.80;;;;;;;6.95;100.00;97899.44;4996804;28;20206;-37
2021/01/21 07:43:04;;;;;;;1.80;0.70;;;;;;;6.85;100.00;97899.75;4996480;28;20249;-33
2021/01/21 07:45:51;;;;;;;1.07;0.70;;;;;;;6.90;100.00;97915.00;4997397;28;20479;-35
2021/01/21 07:48:38;;;;;;;1.63;0.67;;;;;;;6.84;100.00;97894.66;4996688;28;20202;-32
2021/01/21 07:51:25;;;;;;;1.87;0.60;;;;;;;6.95;100.00;97933.69;4996671;28;20201;-35
2021/01/21 07:54:12;;;;;;;0.60;0.60;;;;;;;6.94;100.00;97949.16;4996864;28;20594;-32
2021/01/21 07:57:00;;;;;;;2.80;0.80;;;;;;;6.88;100.00;97945.06;4996994;28;20203;-36
2021/01/21 08:00:01;;;;;;;2.50;0.90;;;;;;;6.96;100.00;97945.66;4957984;29;20208;-34
2021/01/21 08:02:49;;;;;;;3.03;1.47;;;;;;;6.93;100.00;97945.75;4958460;29;20196;-35
2021/01/21 08:05:36;;;;;;;1.23;0.60;;;;;;;7.08;100.00;97950.41;4958739;29;20220;-33
2021/01/21 08:08:25;;;;;;;1.67;0.63;;;;;;;7.02;100.00;97953.16;4957286;29;20355;-36
2021/01/21 08:11:16;;;;;;;1.23;0.80;;;;;;;6.91;100.00;97945.81;4958418;28;20200;-35
2021/01/21 08:14:07;;;;;;;1.77;0.73;;;;;;;6.98;100.00;97936.19;4961801;29;20243;-34
2021/01/21 08:17:04;;;;;;;3.47;1.20;;;;;;;6.97;100.00;97967.91;4962133;29;20595;-34
2021/01/21 08:19:52;;;;;;;3.50;1.40;;;;;;;6.94;100.00;97944.88;4961891;29;20204;-33
2021/01/21 08:22:52;;;;;;;2.03;1.20;;;;;;;7.08;100.00;97950.41;4978986;28;20301;-33
2021/01/21 08:25:43;;;;;;;4.23;1.13;;;;;;;7.12;100.00;97961.44;4980664;28;20195;-33
2021/01/21 08:28:30;;;;;;;3.93;1.10;;;;;;;6.97;100.00;97985.91;4980319;28;20495;-35
2021/01/21 08:31:19;;;;;;;9.30;1.77;;;;;;;7.19;100.00;97999.72;4979209;28;20202;-37
2021/01/21 08:34:12;;;;;;;2.73;0.97;;;;;;;7.13;100.00;98009.38;4980094;28;20231;-32
2021/01/21 08:37:03;;;;;;;3.77;1.20;;;;;;;7.04;100.00;98007.94;4980720;28;20207;-36
2021/01/21 08:39:50;;;;;;;8.20;1.30;;;;;;;6.94;100.00;98010.84;4980578;28;20203;-36
2021/01/21 08:42:38;;;;;;;6.43;1.43;;;;;;;7.02;100.00;98020.00;4980489;28;20263;-34
2021/01/21 08:45:28;;;;;;;3.23;1.33;;;;;;;7.15;100.00;98023.88;4979341;28;20203;-37
2021/01/21 08:48:26;;;;;;;3.67;1.40;;;;;;;7.08;100.00;98013.81;4980137;28;20332;-37
2021/01/21 08:51:37;;;;;;;3.90;1.23;;;;;;;7.02;100.00;98024.28;4980238;28;20254;-37
2021/01/21 08:54:23;;;;;;;2.80;1.50;;;;;;;7.01;100.00;98035.44;4980011;28;20235;-35
2021/01/21 08:57:11;;;;;;;11.77;1.90;;;;;;;6.97;100.00;98042.44;4980289;28;20198;-34
2021/01/21 09:00:13;;;;;;;4.27;1.50;;;;;;;6.94;100.00;98049.41;4998699;28;20207;-34
2021/01/21 09:03:02;;;;;;;3.93;1.40;;;;;;;7.04;100.00;98045.66;4998513;28;20210;-37
2021/01/21 09:05:57;;;;;;;8.07;1.30;;;;;;;6.86;100.00;98042.75;4999319;28;20293;-37
2021/01/21 09:08:51;;;;;;;4.80;1.43;;;;;;;6.95;100.00;98054.50;4998730;28;20246;-35
2021/01/21 09:11:39;;;;;;;5.70;1.80;;;;;;;6.91;100.00;98053.75;4999604;28;20504;-35
2021/01/21 09:14:28;;;;;;;4.90;1.77;;;;;;;6.95;100.00;98058.78;4998931;28;20668;-33
2021/01/21 09:17:15;;;;;;;10.10;2.40;;;;;;;7.11;100.00;98062.56;4998321;28;20624;-36
2021/01/21 09:20:19;;;;;;;8.30;2.23;;;;;;;7.25;100.00;98063.81;4998016;28;20199;-33
2021/01/21 09:23:25;;;;;;;6.20;1.50;;;;;;;7.59;100.00;98062.78;4998646;28;20207;-38
2021/01/21 09:26:17;;;;;;;3.43;1.47;;;;;;;7.71;100.00;98064.09;4979650;28;20211;-34
2021/01/21 09:29:04;;;;;;;3.97;1.47;;;;;;;7.33;100.00;98066.16;4980213;28;20625;-36
2021/01/21 09:31:51;;;;;;;6.33;2.10;;;;;;;7.37;100.00;98065.19;4979287;28;20250;-37
2021/01/21 09:34:37;;;;;;;4.67;1.80;;;;;;;7.48;100.00;98068.25;4978463;28;20322;-35
2021/01/21 09:37:25;;;;;;;3.77;1.47;;;;;;;7.48;100.00;98069.97;4997588;28;20218;-35
2021/01/21 09:40:14;;;;;;;8.33;1.97;;;;;;;7.59;100.00;98068.72;4998532;28;20205;-34
2021/01/21 09:43:05;;;;;;;6.93;1.73;;;;;;;7.92;100.00;98079.66;4997766;28;20211;-35
2021/01/21 09:45:57;;;;;;;3.43;1.50;;;;;;;8.14;100.00;98089.25;4998109;28;20258;-35
2021/01/21 09:48:45;;;;;;;7.23;1.70;;;;;;;8.02;100.00;98087.06;4997328;28;20273;-33
2021/01/21 09:51:32;;;;;;;5.20;1.67;;;;;;;8.11;100.00;98082.47;4998259;28;20215;-37
2021/01/21 09:54:19;;;;;;;5.90;1.80;;;;;;;7.89;100.00;98087.47;4997599;28;20234;-34
2021/01/21 09:57:07;;;;;;;5.37;1.50;;;;;;;8.05;100.00;98087.81;4997587;28;20289;-38
2021/01/21 09:59:56;;;;;;;4.73;1.67;;;;;;;8.22;100.00;98087.22;4978106;28;20207;-35
2021/01/21 10:02:43;;;;;;;5.37;1.50;;;;;;;9.13;100.00;98089.09;4978194;28;20267;-36
2021/01/21 10:05:30;;;;;;;5.00;1.57;;;;;;;8.82;100.00;98093.69;4977893;28;20505;-34
2021/01/21 10:08:17;;;;;;;3.97;1.63;;;;;;;9.06;100.00;98099.69;4976727;28;20219;-35
2021/01/21 10:11:04;;;;;;;8.17;2.57;;;;;;;9.79;100.00;98102.78;4977693;28;20617;-35
2021/01/21 10:13:56;;;;;;;3.77;1.73;;;;;;;10.11;100.00;98101.47;4978444;28;20325;-34
2021/01/21 10:16:45;;;;;;;6.50;1.87;;;;;;;9.63;100.00;98105.16;4977540;28;20200;-38
2021/01/21 10:19:33;;;;;;;6.30;2.10;;;;;;;9.24;100.00;98109.28;4978025;28;20379;-38
2021/01/21 10:22:20;;;;;;;5.10;1.63;;;;;;;8.67;100.00;98104.56;4978383;28;20549;-38
2021/01/21 10:25:08;;;;;;;4.57;1.80;;;;;;;9.21;100.00;98109.41;4978330;28;20221;-34
2021/01/21 10:27:54;;;;;;;2.83;1.60;;;;;;;8.84;100.00;98110.78;4978237;28;20206;-36
2021/01/21 10:30:46;;;;;;;6.27;2.30;;;;;;;8.63;100.00;98109.81;4978765;28;20347;-35
2021/01/21 10:33:44;;;;;;;5.20;1.80;;;;;;;9.95;98.29;98106.44;4966287;28;20507;-34
2021/01/21 10:36:35;;;;;;;9.30;2.10;;;;;;;8.88;100.00;98103.78;4958674;29;20207;-36
2021/01/21 10:39:22;;;;;;;4.13;1.80;;;;;;;8.56;100.00;98110.97;4958245;29;20208;-35
2021/01/21 10:42:09;;;;;;;7.03;1.87;;;;;;;9.26;100.00;98099.75;4958440;29;20202;-35
2021/01/21 10:44:56;;;;;;;4.57;1.33;;;;;;;8.72;100.00;98120.72;4958837;29;20629;-35
2021/01/21 10:47:44;;;;;;;5.63;2.67;;;;;;;8.52;100.00;98109.38;4958094;29;20211;-36
2021/01/21 10:50:31;;;;;;;5.37;2.13;;;;;;;9.73;97.29;98112.53;4960028;28;20219;-39
2021/01/21 10:53:19;;;;;;;5.00;1.53;;;;;;;9.78;95.21;98106.31;4959055;29;20248;-35
2021/01/21 10:56:06;;;;;;;6.90;1.60;;;;;;;8.89;100.00;98093.41;4958575;29;20212;-36
2021/01/21 10:58:53;;;;;;;6.47;1.70;;;;;;;9.13;100.00;98096.81;4970640;28;20321;-35
2021/01/21 11:01:42;;;;;;;4.73;1.57;;;;;;;9.81;96.60;98101.00;4977807;28;20262;-35
2021/01/21 11:04:30;;;;;;;10.17;1.80;;;;;;;9.30;96.75;98103.91;4977619;28;20210;-33
2021/01/21 11:07:16;;;;;;;8.13;1.77;;;;;;;9.04;97.18;98102.31;4977887;28;20260;-37
2021/01/21 11:10:04;;;;;;;9.60;2.00;;;;;;;9.75;95.16;98097.84;4977488;28;20207;-35
2021/01/21 11:13:04;;;;;;;5.97;2.03;;;;;;;9.61;90.47;98095.78;4977568;28;20451;-35
2021/01/21 11:15:54;;;;;;;3.50;1.73;;;;;;;9.97;90.50;98098.63;4977833;28;20200;-35
2021/01/21 11:18:40;;;;;;;6.73;2.30;;;;;;;9.38;89.92;98098.47;4977664;28;20470;-35
2021/01/21 11:21:28;;;;;;;6.90;1.53;;;;;;;9.55;96.84;98111.53;4977307;28;20286;-36
2021/01/21 11:24:14;;;;;;;9.93;1.87;;;;;;;9.67;90.79;98111.88;4978197;28;20202;-33
2021/01/21 11:27:04;;;;;;;6.43;1.63;;;;;;;10.59;88.23;98110.66;4977797;28;20202;-37
2021/01/21 11:29:50;;;;;;;6.30;1.70;;;;;;;9.25;93.74;98108.41;4977634;28;20266;-33
2021/01/21 11:32:37;;;;;;;2.90;1.50;;;;;;;9.39;92.91;98095.81;4978201;28;20203;-34
2021/01/21 11:35:24;;;;;;;8.87;1.80;;;;;;;9.32;96.85;98112.44;4978099;28;20527;-36
2021/01/21 11:38:23;;;;;;;4.27;1.60;;;;;;;9.18;97.37;98105.22;4988484;28;20354;-34
2021/01/21 11:41:24;;;;;;;4.90;1.50;;;;;;;9.14;96.69;98119.13;4977617;28;20214;-32
2021/01/21 11:44:10;;;;;;;7.60;2.33;;;;;;;9.12;95.54;98100.28;4982083;28;20261;-33
2021/01/21 11:47:02;;;;;;;3.97;1.37;;;;;;;9.38;95.17;98108.78;4984276;28;20597;-34
2021/01/21 11:49:49;;;;;;;3.23;1.20;;;;;;;9.42;95.46;98110.31;4984400;28;20501;-33
2021/01/21 11:52:41;;;;;;;6.23;1.50;;;;;;;9.26;96.15;98110.91;4989151;28;20285;-32
2021/01/21 11:55:30;;;;;;;2.60;1.50;;;;;;;9.04;97.32;98112.63;4986432;28;20207;-35
2021/01/21 11:58:17;;;;;;;4.83;1.50;;;;;;;8.96;95.07;98105.19;4981306;28;20312;-33
2021/01/21 12:01:07;;;;;;;7.40;1.90;;;;;;;9.06;95.25;98105.69;4995271;28;20210;-33
2021/01/21 12:03:59;;;;;;;4.90;1.53;;;;;;;8.90;93.63;98095.09;4991185;28;20205;-31
2021/01/21 12:06:48;;;;;;;7.23;1.37;;;;;;;9.06;92.93;98108.25;4981093;28;20277;-32
2021/01/21 12:09:37;;;;;;;6.30;1.80;;;;;;;8.86;93.42;98114.16;4981283;28;20225;-36
2021/01/21 12:12:26;;;;;;;6.13;3.03;;;;;;;8.89;90.93;98096.00;4980940;28;20780;-35
2021/01/21 12:15:20;;;;;;;6.10;1.50;;;;;;;9.39;91.94;98110.47;5000583;28;20203;-32
2021/01/21 12:18:07;;;;;;;4.37;1.77;;;;;;;8.87;92.43;98094.38;4997544;28;20652;-34
2021/01/21 12:20:54;;;;;;;10.53;1.97;;;;;;;9.07;91.80;98089.31;4980939;28;20209;-32
2021/01/21 12:23:44;;;;;;;5.90;1.53;;;;;;;8.98;92.60;98087.09;4989816;28;20257;-35
2021/01/21 12:26:35;;;;;;;3.73;1.70;;;;;;;9.36;91.80;98093.34;4993213;28;20199;-32
2021/01/21 12:29:26;;;;;;;7.03;1.40;;;;;;;9.29;94.20;98097.06;4980958;28;20206;-33
2021/01/21 12:32:13;;;;;;;5.17;1.67;;;;;;;9.00;94.46;98090.44;4980716;28;20628;-38
2021/01/21 12:35:02;;;;;;;5.00;1.40;;;;;;;8.97;98.40;98094.00;4994667;28;20376;-35
2021/01/21 12:37:50;;;;;;;7.20;2.23;;;;;;;8.81;97.73;98086.84;4999592;28;20733;-32
2021/01/21 12:40:37;;;;;;;2.13;1.10;;;;;;;8.94;98.82;98094.09;5000126;28;20357;-34
2021/01/21 12:43:29;;;;;;;4.20;2.43;;;;;;;8.64;97.83;98078.00;4999575;28;20338;-34
2021/01/21 12:46:18;;;;;;;6.03;2.00;;;;;;;8.68;97.10;98063.28;5000225;28;20229;-32
2021/01/21 12:49:05;;;;;;;5.27;1.70;;;;;;;8.97;97.03;98070.78;4994318;28;20202;-34
2021/01/21 12:51:51;;;;;;;5.47;2.07;;;;;;;8.69;97.14;98058.97;4999859;28;20212;-37
2021/01/21 12:54:40;;;;;;;4.77;1.90;;;;;;;8.75;100.00;98069.06;4997945;28;20230;-38
2021/01/21 12:57:30;;;;;;;5.03;1.43;;;;;;;9.06;95.83;98063.56;4994941;28;20293;-35
2021/01/21 13:00:21;;;;;;;3.60;1.40;;;;;;;8.90;95.93;98063.31;4999310;28;20199;-36
2021/01/21 13:03:10;;;;;;;4.33;1.40;;;;;;;8.86;95.35;98064.31;4997378;28;20563;-33
2021/01/21 13:05:56;;;;;;;3.20;1.33;;;;;;;8.86;95.56;98057.44;4980312;28;20556;-32
2021/01/21 13:08:43;;;;;;;2.70;1.40;;;;;;;8.60;97.59;98060.97;4968902;28;20211;-31
2021/01/21 13:11:31;;;;;;;2.43;1.00;;;;;;;8.76;98.66;98055.28;4979959;28;20206;-35
2021/01/21 13:14:20;;;;;;;1.80;1.10;;;;;;;8.59;97.00;98068.78;4979842;28;20649;-32
2021/01/21 13:17:09;;;;;;;2.47;1.10;;;;;;;8.47;96.95;98059.75;4980739;28;20246;-37
2021/01/21 13:19:56;;;;;;;3.07;1.90;;;;;;;8.41;97.71;98062.53;4992463;28;20367;-34